Time;durP1;ratioP1;P1;durP2;ratioP2;P2;SDS_P1;SDS_P2;PMS_P1;PMS_P2;Temp;Humidity;BMP_temperature;BMP_pressure;BME280_temperature;BME280_humidity;BME280_pressure;Samples;Min_cycle;Max_cycle;Signal;HPM_P1;HPM_P2
2023/06/02 00:01:03;;;;;;;17.00;4.38;;;10.60;99.90;;;;;;5075546;28;20040;-39
2023/06/02 00:03:31;;;;;;;14.70;4.13;;;10.50;99.90;;;;;;5064205;28;20036;-39
2023/06/02 00:05:59;;;;;;;17.02;5.13;;;10.50;99.90;;;;;;5076488;28;20503;-39
2023/06/02 00:08:25;;;;;;;22.38;4.13;;;10.50;99.90;;;;;;5076067;28;20047;-41
2023/06/02 00:10:52;;;;;;;15.00;4.57;;;10.50;99.90;;;;;;5076479;28;20464;-37
2023/06/02 00:13:17;;;;;;;15.32;3.47;;;10.50;99.90;;;;;;5075831;28;20042;-39
2023/06/02 00:15:43;;;;;;;14.93;4.35;;;10.50;99.90;;;;;;5076479;28;20032;-36
2023/06/02 00:18:10;;;;;;;19.40;3.95;;;10.50;99.90;;;;;;5076570;28;20050;-38
2023/06/02 00:20:36;;;;;;;14.05;3.63;;;10.50;99.90;;;;;;5076206;28;20449;-38
2023/06/02 00:23:02;;;;;;;14.50;4.05;;;10.50;99.90;;;;;;5076350;28;20051;-36
2023/06/02 00:25:29;;;;;;;18.05;5.20;;;10.50;99.90;;;;;;5076290;28;20114;-38
2023/06/02 00:27:55;;;;;;;14.70;4.47;;;10.50;99.90;;;;;;5075777;28;20102;-38
2023/06/02 00:30:21;;;;;;;17.52;4.63;;;10.50;99.90;;;;;;5075596;28;20479;-40
2023/06/02 00:32:46;;;;;;;13.63;3.70;;;10.50;99.90;;;;;;5077114;28;20441;-38
2023/06/02 00:35:12;;;;;;;17.45;4.70;;;10.50;99.90;;;;;;5076704;28;20048;-36
2023/06/02 00:37:38;;;;;;;19.10;4.43;;;10.40;99.90;;;;;;5063981;28;20109;-38
2023/06/02 00:40:04;;;;;;;16.27;4.40;;;10.40;99.90;;;;;;5057313;28;20083;-40
2023/06/02 00:42:30;;;;;;;21.40;4.30;;;10.40;99.90;;;;;;5073067;28;20097;-39
2023/06/02 00:44:56;;;;;;;14.85;4.22;;;10.40;99.90;;;;;;5070051;28;20052;-39
2023/06/02 00:47:21;;;;;;;14.93;4.05;;;10.30;99.90;;;;;;5076353;28;20484;-36
2023/06/02 00:49:47;;;;;;;17.42;3.67;;;10.30;99.90;;;;;;5069151;28;20078;-35
2023/06/02 00:52:15;;;;;;;15.32;3.40;;;10.30;99.90;;;;;;5076663;28;20425;-38
2023/06/02 00:54:41;;;;;;;14.40;4.82;;;10.20;99.90;;;;;;5075044;28;20115;-41
2023/06/02 00:57:07;;;;;;;16.65;3.22;;;10.30;99.90;;;;;;5075828;28;20051;-38
2023/06/02 00:59:33;;;;;;;13.93;3.83;;;10.30;99.90;;;;;;5074694;28;20497;-35
2023/06/02 01:02:00;;;;;;;16.00;4.13;;;10.30;99.90;;;;;;5075748;28;20054;-36
2023/06/02 01:04:26;;;;;;;14.60;3.53;;;10.30;99.90;;;;;;5075725;28;20044;-41
2023/06/02 01:06:54;;;;;;;22.35;5.25;;;10.30;99.90;;;;;;5074904;28;20123;-37
2023/06/02 01:09:20;;;;;;;14.73;3.58;;;10.30;99.90;;;;;;5074855;28;20055;-39
2023/06/02 01:11:49;;;;;;;11.35;3.40;;;10.30;99.90;;;;;;5075011;28;20037;-40
2023/06/02 01:14:15;;;;;;;20.15;4.90;;;10.40;99.90;;;;;;5073982;28;20058;-39
2023/06/02 01:16:44;;;;;;;14.98;4.38;;;10.40;99.90;;;;;;5075081;28;20177;-42
2023/06/02 01:19:14;;;;;;;14.57;3.22;;;10.40;99.90;;;;;;5075391;28;20457;-40
2023/06/02 01:21:47;;;;;;;14.02;4.18;;;10.40;99.90;;;;;;5074853;28;20083;-41
2023/06/02 01:24:14;;;;;;;15.77;3.30;;;10.40;99.90;;;;;;5073530;28;20460;-36
2023/06/02 01:26:40;;;;;;;16.23;3.33;;;10.40;99.90;;;;;;5074570;28;20117;-39
2023/06/02 01:29:07;;;;;;;17.05;4.32;;;10.40;99.90;;;;;;5073326;28;20484;-39
2023/06/02 01:31:48;;;;;;;16.02;3.03;;;10.40;99.90;;;;;;5074303;28;20081;-36
2023/06/02 01:34:21;;;;;;;15.25;3.47;;;10.40;99.90;;;;;;5076034;28;20114;-36
2023/06/02 01:36:48;;;;;;;;;;;10.40;99.90;;;;;;5069172;28;20060;-38
2023/06/02 01:39:16;;;;;;;16.73;3.45;;;10.40;99.90;;;;;;5054064;28;20315;-36
2023/06/02 01:41:44;;;;;;;18.15;3.38;;;10.40;99.90;;;;;;5069194;28;20396;-40
2023/06/02 01:44:11;;;;;;;15.10;3.47;;;10.40;99.90;;;;;;5066784;28;20488;-39
2023/06/02 01:46:39;;;;;;;14.48;3.30;;;10.40;99.90;;;;;;5074145;28;20067;-38
2023/06/02 01:49:13;;;;;;;17.70;4.22;;;10.40;99.90;;;;;;5072049;28;20490;-40
2023/06/02 01:51:39;;;;;;;15.35;3.63;;;10.40;99.90;;;;;;5086352;27;20585;-40
2023/06/02 01:54:05;;;;;;;18.98;4.15;;;10.40;99.90;;;;;;5097293;27;20058;-39
2023/06/02 01:56:31;;;;;;;15.70;4.00;;;10.40;99.90;;;;;;5073355;28;20077;-35
2023/06/02 01:58:57;;;;;;;17.30;3.70;;;10.30;99.90;;;;;;5074965;28;20036;-36
2023/06/02 02:01:24;;;;;;;20.83;4.40;;;10.30;99.90;;;;;;5068881;28;20048;-37
2023/06/02 02:03:50;;;;;;;15.30;3.25;;;10.30;99.90;;;;;;5073701;28;20051;-41
2023/06/02 02:06:17;;;;;;;17.40;3.42;;;10.30;99.90;;;;;;5071291;28;20044;-40
2023/06/02 02:08:42;;;;;;;17.17;4.15;;;10.30;99.90;;;;;;5075021;28;20040;-38
2023/06/02 02:11:08;;;;;;;13.40;3.90;;;10.30;99.90;;;;;;5074124;28;20104;-37
2023/06/02 02:13:33;;;;;;;14.90;3.42;;;10.30;99.90;;;;;;5073539;28;20052;-40
2023/06/02 02:15:59;;;;;;;12.52;3.35;;;10.30;99.90;;;;;;5074666;28;20486;-36
2023/06/02 02:18:27;;;;;;;15.98;3.97;;;10.30;99.90;;;;;;5054628;28;20036;-39
2023/06/02 02:20:52;;;;;;;15.13;3.47;;;10.30;99.90;;;;;;5072894;28;20052;-39
2023/06/02 02:23:18;;;;;;;17.70;3.88;;;10.30;99.90;;;;;;5073851;28;20510;-38
2023/06/02 02:25:43;;;;;;;15.93;3.80;;;10.30;99.90;;;;;;5073548;28;20087;-38
2023/06/02 02:28:09;;;;;;;17.90;4.90;;;10.30;99.90;;;;;;5073885;28;20139;-39
2023/06/02 02:30:35;;;;;;;19.77;4.15;;;10.30;99.90;;;;;;5071654;28;20044;-39
2023/06/02 02:33:02;;;;;;;15.25;3.70;;;10.30;99.90;;;;;;5073575;28;20206;-38
2023/06/02 02:35:28;;;;;;;16.70;4.28;;;10.20;99.90;;;;;;5073379;28;20051;-38
2023/06/02 02:37:53;;;;;;;17.50;3.45;;;10.20;99.90;;;;;;5059099;28;20036;-38
2023/06/02 02:40:19;;;;;;;18.67;4.18;;;10.20;99.90;;;;;;5057697;28;20411;-38
2023/06/02 02:42:45;;;;;;;16.35;4.00;;;10.20;99.90;;;;;;5068117;28;20525;-39
2023/06/02 02:45:10;;;;;;;16.02;4.60;;;10.10;99.90;;;;;;5069467;28;20040;-38
2023/06/02 02:47:36;;;;;;;16.60;3.78;;;10.10;99.90;;;;;;5071749;28;20711;-36
2023/06/02 02:50:02;;;;;;;16.00;4.35;;;10.10;99.90;;;;;;5066188;28;20040;-39
2023/06/02 02:52:28;;;;;;;19.52;5.05;;;10.10;99.90;;;;;;5074084;28;20052;-39
2023/06/02 02:54:54;;;;;;;17.88;4.22;;;10.10;99.90;;;;;;5074048;28;20050;-36
2023/06/02 02:57:19;;;;;;;22.42;4.97;;;10.10;99.90;;;;;;5073263;28;20079;-37
2023/06/02 02:59:45;;;;;;;19.33;5.35;;;10.10;99.90;;;;;;5073312;28;20044;-40
2023/06/02 03:02:12;;;;;;;21.70;3.92;;;10.10;99.90;;;;;;5074670;28;20321;-40
2023/06/02 03:04:41;;;;;;;20.23;4.20;;;10.10;99.90;;;;;;5073808;28;20047;-41
2023/06/02 03:07:06;;;;;;;20.77;4.90;;;10.20;99.90;;;;;;5073479;28;20044;-35
2023/06/02 03:09:32;;;;;;;12.68;4.40;;;10.20;99.90;;;;;;5072607;28;20313;-40
2023/06/02 03:11:58;;;;;;;21.42;3.80;;;10.10;99.90;;;;;;5073957;28;20257;-40
2023/06/02 03:14:28;;;;;;;25.60;5.15;;;10.10;99.90;;;;;;5073771;28;20052;-39
2023/06/02 03:16:54;;;;;;;23.00;4.20;;;10.20;99.90;;;;;;5073283;28;20048;-36
2023/06/02 03:19:24;;;;;;;17.33;4.03;;;10.20;99.90;;;;;;5075912;28;20455;-39
2023/06/02 03:21:51;;;;;;;12.05;4.00;;;10.20;99.90;;;;;;5077596;28;20098;-39
2023/06/02 03:24:18;;;;;;;22.05;5.38;;;10.20;99.90;;;;;;5078720;28;20048;-36
2023/06/02 03:26:45;;;;;;;15.98;4.07;;;10.20;99.90;;;;;;5076728;28;20044;-37
2023/06/02 03:29:12;;;;;;;23.40;4.57;;;10.20;99.90;;;;;;5077858;28;20039;-41
2023/06/02 03:31:40;;;;;;;18.98;4.38;;;10.20;99.90;;;;;;5077606;28;20076;-37
2023/06/02 03:34:06;;;;;;;14.85;4.05;;;10.20;99.90;;;;;;5076155;28;20052;-39
2023/06/02 03:36:35;;;;;;;16.63;4.00;;;10.20;99.90;;;;;;5072610;28;20041;-35
2023/06/02 03:39:09;;;;;;;18.90;3.90;;;10.30;99.90;;;;;;5059995;28;20094;-39
2023/06/02 03:41:36;;;;;;;17.42;4.10;;;10.30;99.90;;;;;;5070482;28;20377;-39
2023/06/02 03:44:05;;;;;;;18.73;4.07;;;10.30;99.90;;;;;;5071370;28;20047;-38
2023/06/02 03:46:32;;;;;;;16.80;3.92;;;10.30;99.90;;;;;;5076908;28;20482;-37
2023/06/02 03:48:58;;;;;;;21.35;5.82;;;10.30;99.90;;;;;;5075861;28;20570;-36
2023/06/02 03:51:23;;;;;;;19.25;4.28;;;10.30;99.90;;;;;;5071254;28;20039;-38
2023/06/02 03:53:49;;;;;;;17.80;3.92;;;10.40;99.90;;;;;;5077271;28;20543;-37
2023/06/02 03:56:15;;;;;;;15.32;4.18;;;10.40;99.90;;;;;;5075168;28;20044;-41
2023/06/02 03:58:41;;;;;;;17.00;3.80;;;10.40;99.90;;;;;;5077801;28;20387;-40
2023/06/02 04:01:07;;;;;;;18.60;4.10;;;10.40;99.90;;;;;;5070994;28;20075;-39
2023/06/02 04:03:36;;;;;;;19.33;4.28;;;10.40;99.90;;;;;;5075249;28;20387;-36
2023/06/02 04:06:05;;;;;;;15.30;4.10;;;10.40;99.90;;;;;;5074750;28;20056;-39
2023/06/02 04:08:32;;;;;;;13.73;3.65;;;10.40;99.90;;;;;;5075827;28;20124;-36
2023/06/02 04:10:58;;;;;;;15.27;4.30;;;10.50;99.90;;;;;;5076103;28;20044;-36
2023/06/02 04:13:23;;;;;;;18.60;5.07;;;10.50;99.90;;;;;;5076452;28;20040;-38
2023/06/02 04:15:49;;;;;;;20.08;3.92;;;10.50;99.90;;;;;;5076149;28;20032;-38
2023/06/02 04:18:15;;;;;;;17.65;4.30;;;10.60;99.90;;;;;;5076192;28;20563;-40
2023/06/02 04:20:40;;;;;;;20.25;4.90;;;10.50;99.90;;;;;;5076209;28;20079;-40
2023/06/02 04:23:06;;;;;;;20.63;5.45;;;10.60;99.90;;;;;;5076537;28;20048;-39
2023/06/02 04:25:32;;;;;;;14.70;3.60;;;10.60;99.90;;;;;;5076774;28;20052;-36
2023/06/02 04:27:57;;;;;;;14.95;4.13;;;10.60;99.90;;;;;;5074432;28;20497;-37
2023/06/02 04:30:23;;;;;;;23.48;5.80;;;10.70;99.90;;;;;;5074677;28;20098;-36
2023/06/02 04:32:49;;;;;;;17.25;3.75;;;10.70;99.90;;;;;;5076391;28;20120;-37
2023/06/02 04:35:15;;;;;;;21.48;4.47;;;10.70;99.90;;;;;;5076139;28;20052;-40
2023/06/02 04:37:43;;;;;;;25.02;5.85;;;10.80;99.90;;;;;;5062627;28;20044;-41
2023/06/02 04:40:10;;;;;;;24.75;4.38;;;10.80;99.90;;;;;;5057127;28;20516;-39
2023/06/02 04:42:38;;;;;;;20.52;4.80;;;10.80;99.90;;;;;;5072060;28;20565;-37
2023/06/02 04:45:06;;;;;;;15.82;3.80;;;10.90;99.90;;;;;;5072071;28;20067;-35
2023/06/02 04:47:32;;;;;;;14.23;4.15;;;10.90;99.90;;;;;;5076098;28;20044;-38
2023/06/02 04:49:58;;;;;;;23.52;4.57;;;10.90;99.90;;;;;;5067991;28;20113;-36
2023/06/02 04:52:24;;;;;;;24.00;4.20;;;11.00;99.90;;;;;;5075596;28;20047;-36
2023/06/02 04:54:50;;;;;;;13.95;4.07;;;11.00;99.90;;;;;;5074724;28;20066;-39
2023/06/02 04:57:15;;;;;;;13.73;4.72;;;11.00;99.90;;;;;;5074015;28;20388;-41
2023/06/02 04:59:41;;;;;;;27.85;6.38;;;11.00;99.90;;;;;;5073785;28;20507;-41
2023/06/02 05:02:07;;;;;;;29.73;5.70;;;11.00;99.90;;;;;;5075983;28;20040;-36
2023/06/02 05:04:34;;;;;;;16.48;4.28;;;11.00;99.90;;;;;;5075441;28;20139;-39
2023/06/02 05:07:00;;;;;;;18.42;5.82;;;11.10;99.90;;;;;;5074799;28;20040;-39
2023/06/02 05:09:26;;;;;;;24.80;5.30;;;11.10;99.90;;;;;;5074618;28;20093;-36
2023/06/02 05:11:53;;;;;;;20.38;3.60;;;11.20;99.90;;;;;;5074913;28;20529;-40
2023/06/02 05:14:19;;;;;;;18.50;4.15;;;11.10;99.90;;;;;;5074939;28;20060;-36
2023/06/02 05:16:46;;;;;;;16.58;3.90;;;11.20;99.90;;;;;;5075539;28;20593;-37
2023/06/02 05:19:11;;;;;;;27.65;4.63;;;11.20;99.90;;;;;;5075585;28;20161;-41
2023/06/02 05:21:37;;;;;;;22.42;4.43;;;11.20;99.90;;;;;;5074945;28;20061;-36
2023/06/02 05:24:03;;;;;;;14.45;3.97;;;11.20;99.90;;;;;;5075287;28;20044;-36
2023/06/02 05:26:28;;;;;;;13.73;4.38;;;11.30;99.90;;;;;;5074444;28;20036;-39
2023/06/02 05:28:54;;;;;;;21.90;4.57;;;11.30;99.90;;;;;;5075375;28;20435;-37
2023/06/02 05:31:20;;;;;;;21.40;4.53;;;11.30;99.90;;;;;;5074678;28;20345;-40
2023/06/02 05:33:46;;;;;;;14.45;3.92;;;11.30;99.90;;;;;;5075042;28;20055;-41
2023/06/02 05:36:11;;;;;;;19.80;4.45;;;11.40;99.90;;;;;;5073427;28;20467;-40
2023/06/02 05:38:43;;;;;;;19.83;4.78;;;11.40;99.90;;;;;;5058343;28;20072;-38
2023/06/02 05:41:09;;;;;;;17.05;4.68;;;11.40;99.90;;;;;;5064846;28;20048;-41
2023/06/02 05:43:35;;;;;;;23.70;4.95;;;11.50;99.90;;;;;;5066513;28;20456;-41
2023/06/02 05:46:01;;;;;;;15.80;3.88;;;11.50;99.90;;;;;;5074648;28;20044;-37
2023/06/02 05:48:27;;;;;;;19.02;4.65;;;11.60;99.90;;;;;;5073166;28;20044;-39
2023/06/02 05:50:52;;;;;;;21.75;4.65;;;11.60;99.90;;;;;;5067962;28;20094;-40
2023/06/02 05:53:18;;;;;;;24.40;5.45;;;11.60;99.90;;;;;;5074921;28;20080;-40
2023/06/02 05:55:44;;;;;;;18.52;4.55;;;11.70;99.90;;;;;;5075904;28;20056;-37
2023/06/02 05:58:10;;;;;;;19.83;5.43;;;11.60;99.90;;;;;;5073668;28;20047;-41
2023/06/02 06:00:36;;;;;;;22.75;5.47;;;11.70;99.90;;;;;;5074240;28;20228;-40
2023/06/02 06:03:01;;;;;;;19.05;4.53;;;11.70;99.90;;;;;;5073469;28;20065;-37
2023/06/02 06:05:27;;;;;;;23.23;5.13;;;11.80;99.90;;;;;;5063117;28;20045;-41
2023/06/02 06:07:52;;;;;;;29.73;5.72;;;11.80;99.90;;;;;;5061182;28;20047;-36
2023/06/02 06:10:18;;;;;;;20.02;4.35;;;11.80;99.90;;;;;;5074152;28;20051;-38
2023/06/02 06:12:44;;;;;;;17.40;4.97;;;11.90;99.90;;;;;;5067961;28;20089;-38
2023/06/02 06:15:10;;;;;;;19.85;5.13;;;12.00;99.90;;;;;;5102188;27;20123;-37
2023/06/02 06:17:51;;;;;;;25.65;5.13;;;12.00;99.90;;;;;;5069391;28;20470;-42
2023/06/02 06:20:18;;;;;;;21.45;5.50;;;12.00;99.90;;;;;;5073260;28;20055;-39
2023/06/02 06:22:44;;;;;;;20.50;4.70;;;12.10;99.90;;;;;;5073470;28;20137;-38
2023/06/02 06:25:10;;;;;;;26.85;6.15;;;12.10;99.90;;;;;;5072285;28;20123;-40
2023/06/02 06:27:37;;;;;;;25.10;6.15;;;12.10;99.90;;;;;;5072552;28;20044;-38
2023/06/02 06:30:04;;;;;;;16.42;4.82;;;12.20;99.90;;;;;;5073081;28;20073;-37
2023/06/02 06:32:30;;;;;;;18.48;5.55;;;12.20;99.90;;;;;;5073552;28;20404;-39
2023/06/02 06:34:56;;;;;;;26.20;5.13;;;12.20;99.90;;;;;;5073457;28;20561;-39
2023/06/02 06:37:21;;;;;;;18.73;6.03;;;12.30;99.90;;;;;;5063722;28;20045;-38
2023/06/02 06:39:47;;;;;;;23.05;5.85;;;12.30;99.90;;;;;;5054562;28;20041;-41
2023/06/02 06:42:12;;;;;;;23.55;5.40;;;12.40;99.90;;;;;;5053639;28;20052;-40
2023/06/02 06:44:38;;;;;;;22.25;6.18;;;12.60;99.90;;;;;;5066064;28;20047;-39
2023/06/02 06:47:04;;;;;;;21.95;5.55;;;12.60;99.90;;;;;;5071098;28;20388;-38
2023/06/02 06:49:30;;;;;;;25.92;6.88;;;12.60;99.90;;;;;;5067178;28;20047;-41
2023/06/02 06:51:56;;;;;;;29.85;6.03;;;12.70;99.90;;;;;;5072783;28;20556;-40
2023/06/02 06:54:21;;;;;;;22.67;6.50;;;12.90;99.90;;;;;;5072326;28;20132;-37
2023/06/02 06:56:47;;;;;;;25.23;6.65;;;13.10;99.90;;;;;;5058657;28;20135;-39
2023/06/02 06:59:13;;;;;;;25.90;6.07;;;13.20;99.90;;;;;;5062470;28;20047;-41
2023/06/02 07:01:38;;;;;;;22.45;5.18;;;13.30;99.90;;;;;;5051610;28;20124;-36
2023/06/02 07:04:04;;;;;;;29.50;6.53;;;13.50;99.90;;;;;;5054828;28;20117;-39
2023/06/02 07:06:31;;;;;;;22.23;5.05;;;13.60;99.90;;;;;;5054280;28;20052;-40
2023/06/02 07:08:56;;;;;;;26.48;6.32;;;13.60;99.90;;;;;;5058058;28;20082;-38
2023/06/02 07:11:22;;;;;;;28.98;6.95;;;13.70;99.90;;;;;;5058895;28;20040;-37
2023/06/02 07:13:48;;;;;;;28.90;6.45;;;13.70;99.90;;;;;;5059317;28;20070;-38
2023/06/02 07:16:13;;;;;;;24.52;7.13;;;13.70;99.90;;;;;;5054923;28;20037;-38
2023/06/02 07:18:39;;;;;;;23.20;5.07;;;13.70;99.90;;;;;;5053774;28;20158;-42
2023/06/02 07:21:05;;;;;;;27.48;5.78;;;13.70;99.90;;;;;;5055264;28;20040;-37
2023/06/02 07:23:30;;;;;;;31.40;6.55;;;13.60;99.90;;;;;;5053207;28;20567;-45
2023/06/02 07:25:56;;;;;;;23.63;5.50;;;13.70;99.90;;;;;;5054063;28;20167;-42
2023/06/02 07:28:21;;;;;;;28.20;5.88;;;13.70;99.90;;;;;;5086592;27;20137;-37
2023/06/02 07:30:48;;;;;;;29.08;8.02;;;13.80;99.90;;;;;;5053274;28;20131;-38
2023/06/02 07:33:15;;;;;;;20.55;6.43;;;13.90;99.90;;;;;;5069557;28;20048;-39
2023/06/02 07:35:41;;;;;;;23.48;6.53;;;13.90;99.90;;;;;;5069181;28;20539;-42
2023/06/02 07:38:06;;;;;;;23.88;6.25;;;13.90;99.90;;;;;;5057497;28;20037;-40
2023/06/02 07:40:32;;;;;;;27.75;6.82;;;14.00;99.90;;;;;;5058670;28;20090;-38
2023/06/02 07:42:58;;;;;;;19.65;5.78;;;14.20;99.90;;;;;;5065900;28;20040;-37
2023/06/02 07:45:23;;;;;;;24.48;7.18;;;14.40;99.90;;;;;;5071141;28;20144;-42
2023/06/02 07:47:49;;;;;;;23.05;6.75;;;14.80;99.90;;;;;;5070890;28;20460;-38
2023/06/02 07:50:15;;;;;;;28.23;7.53;;;15.10;99.90;;;;;;5071193;28;20564;-44
2023/06/02 07:52:41;;;;;;;24.85;6.28;;;15.70;99.90;;;;;;5071185;28;20053;-42
2023/06/02 07:55:07;;;;;;;26.38;7.47;;;16.10;99.90;;;;;;5072940;28;20040;-39
2023/06/02 07:57:32;;;;;;;23.00;7.07;;;16.00;99.90;;;;;;5072956;28;20040;-37
2023/06/02 07:59:58;;;;;;;25.25;8.10;;;16.10;99.90;;;;;;5071285;28;20336;-41
2023/06/02 08:02:24;;;;;;;22.45;6.70;;;16.10;99.90;;;;;;5073346;28;20044;-43
2023/06/02 08:04:49;;;;;;;18.80;7.22;;;16.00;99.90;;;;;;5074058;28;20325;-39
2023/06/02 08:07:15;;;;;;;23.10;6.25;;;15.80;99.90;;;;;;5077121;28;20515;-42
2023/06/02 08:09:40;;;;;;;25.92;7.65;;;15.90;99.90;;;;;;5074665;28;20055;-44
2023/06/02 08:12:06;;;;;;;25.25;6.30;;;15.80;99.90;;;;;;5077149;28;20483;-37
2023/06/02 08:14:32;;;;;;;20.83;6.88;;;16.00;99.90;;;;;;5074653;28;20067;-39
2023/06/02 08:16:58;;;;;;;20.02;5.95;;;16.00;99.90;;;;;;5067895;28;20077;-42
2023/06/02 08:19:24;;;;;;;21.88;6.57;;;16.10;99.90;;;;;;5074564;28;20044;-42
2023/06/02 08:21:50;;;;;;;22.17;7.53;;;16.10;99.90;;;;;;5075662;28;20039;-41
2023/06/02 08:24:16;;;;;;;22.90;6.35;;;16.10;99.90;;;;;;5075414;28;20048;-43
2023/06/02 08:26:42;;;;;;;16.75;5.85;;;16.50;99.90;;;;;;5075547;28;20024;-39
2023/06/02 08:29:11;;;;;;;16.52;6.22;;;16.80;99.90;;;;;;5073854;28;20069;-39
2023/06/02 08:31:40;;;;;;;16.17;5.75;;;16.80;99.90;;;;;;5075266;28;20047;-40
2023/06/02 08:34:08;;;;;;;18.83;5.43;;;17.00;99.90;;;;;;5073899;28;20036;-38
2023/06/02 08:36:33;;;;;;;19.63;5.70;;;16.90;99.90;;;;;;5072025;28;20403;-38
2023/06/02 08:39:06;;;;;;;21.95;7.18;;;16.80;99.90;;;;;;5071213;28;20108;-42
2023/06/02 08:41:39;;;;;;;21.43;5.43;;;16.90;99.90;;;;;;5076023;28;20036;-40
2023/06/02 08:44:05;;;;;;;20.27;6.35;;;16.90;99.90;;;;;;5072134;28;20474;-38
2023/06/02 08:46:31;;;;;;;25.92;5.68;;;16.70;99.90;;;;;;5074822;28;20482;-40
2023/06/02 08:48:58;;;;;;;23.38;5.55;;;16.70;99.90;;;;;;5072926;28;20306;-41
2023/06/02 08:51:24;;;;;;;20.33;5.13;;;16.90;99.90;;;;;;5073428;28;20055;-37
2023/06/02 08:53:50;;;;;;;22.50;8.48;;;17.10;99.90;;;;;;5072974;28;20421;-41
2023/06/02 08:56:16;;;;;;;24.25;5.45;;;17.40;99.90;;;;;;5073284;28;20047;-43
2023/06/02 08:58:46;;;;;;;17.73;4.97;;;17.90;99.90;;;;;;5074442;28;20064;-42
2023/06/02 09:01:12;;;;;;;12.93;4.45;;;17.40;99.90;;;;;;5075012;28;20075;-42
2023/06/02 09:03:38;;;;;;;14.93;4.25;;;17.60;99.90;;;;;;5073047;28;20083;-39
2023/06/02 09:06:17;;;;;;;15.82;4.82;;;17.60;99.90;;;;;;5068164;28;20669;-37
2023/06/02 09:08:53;;;;;;;14.02;5.00;;;17.90;99.90;;;;;;5071076;28;20036;-39
2023/06/02 09:11:19;;;;;;;24.65;5.57;;;17.60;99.90;;;;;;5074496;28;20047;-41
2023/06/02 09:13:45;;;;;;;24.27;6.40;;;17.70;99.90;;;;;;5074318;28;20039;-43
2023/06/02 09:16:10;;;;;;;15.15;4.72;;;17.40;99.90;;;;;;5071242;28;20710;-42
2023/06/02 09:18:36;;;;;;;19.23;4.70;;;17.80;99.90;;;;;;5073731;28;20079;-41
2023/06/02 09:21:02;;;;;;;17.63;4.97;;;18.20;99.90;;;;;;5074633;28;20047;-39
2023/06/02 09:23:48;;;;;;;18.35;4.32;;;18.40;99.90;;;;;;5074596;28;20135;-40
2023/06/02 09:26:23;;;;;;;30.02;5.30;;;18.10;99.90;;;;;;5073050;28;20170;-39
2023/06/02 09:29:10;;;;;;;24.48;4.88;;;18.10;99.90;;;;;;5069983;28;20083;-41
2023/06/02 09:31:58;;;;;;;19.02;4.35;;;17.80;99.90;;;;;;5074204;28;20122;-38
2023/06/02 09:34:33;;;;;;;13.98;4.20;;;18.00;99.90;;;;;;5071056;28;20447;-41
2023/06/02 09:37:15;;;;;;;16.90;3.88;;;17.80;99.90;;;;;;5069112;28;20075;-41
2023/06/02 09:39:48;;;;;;;12.50;4.07;;;18.30;99.90;;;;;;5097576;27;20120;-42
2023/06/02 09:42:17;;;;;;;9.73;3.95;;;18.60;99.90;;;;;;5071561;28;20443;-39
2023/06/02 09:45:05;;;;;;;14.68;4.18;;;19.00;99.90;;;;;;5070951;28;20400;-38
2023/06/02 09:47:43;;;;;;;14.57;3.40;;;19.10;99.90;;;;;;5071854;28;20578;-42
2023/06/02 09:50:10;;;;;;;17.00;4.38;;;19.10;99.90;;;;;;5071825;28;20046;-42
2023/06/02 09:52:35;;;;;;;15.38;4.10;;;18.50;99.90;;;;;;5074438;28;20043;-40
2023/06/02 09:55:02;;;;;;;10.75;3.70;;;18.40;99.90;;;;;;5073425;28;20066;-39
2023/06/02 09:57:30;;;;;;;13.68;3.85;;;18.50;99.90;;;;;;5072408;28;20495;-37
2023/06/02 09:59:58;;;;;;;9.05;2.90;;;18.70;99.90;;;;;;5073827;28;20127;-40
2023/06/02 10:02:24;;;;;;;8.35;2.92;;;19.10;99.90;;;;;;5074673;28;20477;-40
2023/06/02 10:04:49;;;;;;;12.32;3.13;;;19.00;99.90;;;;;;5073865;28;20559;-42
2023/06/02 10:07:36;;;;;;;10.15;3.50;;;19.30;99.90;;;;;;5073904;28;20492;-43
2023/06/02 10:10:19;;;;;;;9.90;3.10;;;19.60;99.90;;;;;;5071321;28;20040;-37
2023/06/02 10:13:11;;;;;;;11.45;3.13;;;19.70;99.90;;;;;;5074513;28;21078;-42
2023/06/02 10:16:02;;;;;;;6.43;2.30;;;19.90;99.90;;;;;;5072627;28;20446;-41
2023/06/02 10:18:56;;;;;;;9.88;2.63;;;19.60;99.90;;;;;;5073583;28;20508;-44
2023/06/02 10:21:40;;;;;;;14.50;2.78;;;19.40;99.90;;;;;;5067836;28;20079;-39
2023/06/02 10:24:24;;;;;;;7.60;3.03;;;19.60;99.90;;;;;;5069459;28;20490;-41
2023/06/02 10:27:14;;;;;;;9.85;2.85;;;19.70;99.90;;;;;;5070610;28;20052;-42
2023/06/02 10:29:41;;;;;;;6.93;2.78;;;19.90;99.90;;;;;;5066688;28;20325;-44
2023/06/02 10:32:24;;;;;;;7.40;2.30;;;19.90;99.90;;;;;;5072780;28;20161;-39
2023/06/02 10:34:54;;;;;;;6.90;2.60;;;20.20;99.90;;;;;;5062506;28;20060;-39
2023/06/02 10:37:21;;;;;;;5.25;2.00;;;20.50;99.90;;;;;;5061275;28;20098;-46
2023/06/02 10:39:51;;;;;;;6.68;2.30;;;20.70;99.90;;;;;;5071327;28;20093;-39
2023/06/02 10:42:18;;;;;;;8.32;2.50;;;20.30;99.90;;;;;;5092145;27;20437;-40
2023/06/02 10:44:43;;;;;;;6.40;2.10;;;20.00;99.90;;;;;;5094217;27;20377;-41
2023/06/02 10:47:18;;;;;;;8.65;2.40;;;20.20;99.90;;;;;;5073360;28;20044;-41
2023/06/02 10:50:22;;;;;;;7.15;1.98;;;20.50;99.90;;;;;;5072697;28;20032;-41
2023/06/02 10:52:59;;;;;;;7.22;2.10;;;20.60;99.90;;;;;;4990207;28;20065;-42
2023/06/02 10:55:33;;;;;;;10.75;2.63;;;20.90;99.90;;;;;;4974344;28;20422;-44
2023/06/02 10:58:05;;;;;;;8.55;2.53;;;20.70;99.90;;;;;;4974288;28;20080;-39
2023/06/02 11:00:36;;;;;;;9.60;2.33;;;20.90;99.90;;;;;;4990512;28;20342;-40
2023/06/02 11:03:13;;;;;;;8.13;2.65;;;21.00;99.90;;;;;;4991205;28;20525;-38
2023/06/02 11:05:39;;;;;;;7.93;2.20;;;20.70;99.90;;;;;;4990591;28;20101;-39
2023/06/02 11:08:21;;;;;;;7.53;2.35;;;20.40;99.90;;;;;;4990811;28;20418;-41
2023/06/02 11:10:46;;;;;;;9.80;3.25;;;19.90;99.90;;;;;;4990817;28;20136;-38
2023/06/02 11:13:16;;;;;;;8.02;2.17;;;19.90;99.90;;;;;;4991563;28;20120;-40
2023/06/02 11:16:02;;;;;;;7.05;2.22;;;20.20;99.90;;;;;;4990351;28;20058;-37
2023/06/02 11:18:28;;;;;;;10.00;2.10;;;20.10;99.90;;;;;;4973656;28;20164;-41
2023/06/02 11:20:55;;;;;;;9.80;2.55;;;19.70;99.90;;;;;;4990434;28;20056;-42
2023/06/02 11:23:22;;;;;;;5.18;2.08;;;19.70;99.90;;;;;;4974535;28;20058;-42
2023/06/02 11:25:49;;;;;;;7.68;2.55;;;19.70;99.90;;;;;;4990092;28;20054;-39
2023/06/02 11:28:20;;;;;;;6.47;2.40;;;20.00;99.90;;;;;;4962118;28;20527;-45
2023/06/02 11:30:46;;;;;;;6.47;1.85;;;19.90;99.80;;;;;;5071665;28;20074;-46
2023/06/02 11:33:12;;;;;;;10.95;2.22;;;19.80;99.90;;;;;;5071013;28;20052;-43
2023/06/02 11:35:37;;;;;;;6.03;2.78;;;19.70;99.90;;;;;;5072410;28;20488;-38
2023/06/02 11:38:08;;;;;;;5.80;2.17;;;19.60;99.90;;;;;;5057762;28;20122;-40
2023/06/02 11:40:37;;;;;;;3.67;1.70;;;19.50;99.90;;;;;;5064950;28;20078;-41
2023/06/02 11:43:03;;;;;;;3.83;1.90;;;19.60;99.90;;;;;;5074616;28;20047;-38
2023/06/02 11:45:29;;;;;;;7.55;2.10;;;19.70;99.30;;;;;;5075505;28;20092;-38
2023/06/02 11:48:08;;;;;;;5.43;1.75;;;19.90;99.90;;;;;;5076918;28;20040;-41
2023/06/02 11:50:34;;;;;;;3.97;1.70;;;19.90;98.80;;;;;;5072540;28;20048;-44
2023/06/02 11:53:00;;;;;;;8.30;1.67;;;20.00;98.50;;;;;;5076045;28;20706;-44
2023/06/02 11:55:28;;;;;;;9.45;1.75;;;20.10;98.60;;;;;;5075496;28;20647;-42
2023/06/02 11:58:13;;;;;;;7.38;1.50;;;20.00;98.50;;;;;;5075913;28;20043;-44
2023/06/02 12:00:39;;;;;;;8.40;2.22;;;20.10;97.60;;;;;;5074935;28;20131;-37
2023/06/02 12:03:08;;;;;;;7.35;1.90;;;20.00;98.60;;;;;;5076027;28;20040;-37
2023/06/02 12:05:34;;;;;;;9.00;2.15;;;20.10;98.20;;;;;;5075425;28;20499;-42
2023/06/02 12:08:15;;;;;;;9.25;1.92;;;20.00;96.90;;;;;;5076267;28;20071;-41
2023/06/02 12:10:42;;;;;;;6.53;1.70;;;20.20;95.90;;;;;;5073398;28;20127;-43
2023/06/02 12:13:08;;;;;;;6.45;1.73;;;20.10;96.30;;;;;;5077106;28;20309;-40
2023/06/02 12:15:34;;;;;;;3.47;1.85;;;20.20;96.40;;;;;;5074873;28;20044;-42
2023/06/02 12:18:01;;;;;;;5.97;1.52;;;20.20;95.60;;;;;;5076562;28;20044;-37
2023/06/02 12:20:37;;;;;;;2.97;1.67;;;20.30;95.20;;;;;;5075791;28;20052;-44
2023/06/02 12:23:03;;;;;;;7.47;1.77;;;20.20;95.30;;;;;;5068411;28;20059;-38
2023/06/02 12:25:29;;;;;;;5.00;1.98;;;20.10;94.10;;;;;;5099904;27;20055;-38
2023/06/02 12:28:10;;;;;;;3.83;1.50;;;20.00;95.10;;;;;;5065414;28;20089;-38
2023/06/02 12:30:36;;;;;;;3.97;1.80;;;20.20;95.80;;;;;;5093379;27;20400;-41
2023/06/02 12:33:10;;;;;;;4.60;2.22;;;20.20;94.50;;;;;;5067519;28;20044;-42
2023/06/02 12:35:36;;;;;;;4.03;1.85;;;20.10;96.90;;;;;;5070120;28;20150;-44
2023/06/02 12:38:03;;;;;;;4.68;1.73;;;20.10;96.50;;;;;;5062914;28;20055;-39
2023/06/02 12:40:30;;;;;;;6.28;1.85;;;20.30;97.00;;;;;;5056388;28;20059;-37
2023/06/02 12:42:55;;;;;;;6.18;2.65;;;20.30;96.60;;;;;;5059199;28;20162;-42